TimeEST,TemperatureF,Dew PointF,Humidity,Sea Level PressureIn,VisibilityMPH,Wind Direction,Wind SpeedMPH,Gust SpeedMPH,PrecipitationIn,Events,Conditions,WindDirDegrees,DateUTC
12:53 AM,30.9,27.0,85,30.24,10.0,Calm,Calm,-,N/A,,Clear,0,2013-11-09 05:53:00
1:53 AM,28.9,26.1,89,30.26,10.0,Calm,Calm,-,N/A,,Clear,0,2013-11-09 06:53:00
2:53 AM,28.0,25.0,88,30.26,10.0,Calm,Calm,-,N/A,,Clear,0,2013-11-09 07:53:00
3:53 AM,27.0,25.0,92,30.27,10.0,Calm,Calm,-,N/A,,Clear,0,2013-11-09 08:53:00
4:53 AM,26.1,23.0,88,30.28,10.0,Calm,Calm,-,N/A,,Clear,0,2013-11-09 09:53:00
5:53 AM,25.0,23.0,92,30.29,10.0,Calm,Calm,-,N/A,,Clear,0,2013-11-09 10:53:00
6:53 AM,24.1,23.0,96,30.30,10.0,Calm,Calm,-,N/A,,Clear,0,2013-11-09 11:53:00
7:53 AM,30.9,28.9,92,30.30,10.0,Calm,Calm,-,N/A,,Clear,0,2013-11-09 12:53:00
8:53 AM,37.0,30.0,76,30.30,10.0,Calm,Calm,-,N/A,,Clear,0,2013-11-09 13:53:00
9:53 AM,41.0,32.0,70,30.29,10.0,Calm,Calm,-,N/A,,Clear,0,2013-11-09 14:53:00
10:53 AM,45.0,28.0,52,30.27,10.0,West,3.5,-,N/A,,Clear,270,2013-11-09 15:53:00
11:53 AM,48.0,26.1,42,30.23,10.0,West,4.6,-,N/A,,Clear,260,2013-11-09 16:53:00
12:53 PM,50.0,25.0,38,30.20,10.0,SW,6.9,-,N/A,,Clear,230,2013-11-09 17:53:00
1:53 PM,51.1,25.0,36,30.17,10.0,Variable,6.9,-,N/A,,Clear,0,2013-11-09 18:53:00
2:53 PM,50.0,25.0,38,30.14,10.0,Variable,6.9,-,N/A,,Clear,0,2013-11-09 19:53:00
3:53 PM,48.9,24.1,38,30.12,10.0,Variable,5.8,-,N/A,,Clear,0,2013-11-09 20:53:00
4:53 PM,46.9,25.0,42,30.12,10.0,South,3.5,-,N/A,,Clear,190,2013-11-09 21:53:00
5:53 PM,46.0,26.1,46,30.11,10.0,South,4.6,-,N/A,,Clear,170,2013-11-09 22:53:00
6:53 PM,45.0,26.1,48,30.10,10.0,Calm,Calm,-,N/A,,Clear,0,2013-11-09 23:53:00
7:53 PM,41.0,27.0,57,30.10,10.0,Calm,Calm,-,N/A,,Clear,0,2013-11-10 00:53:00
8:53 PM,36.0,30.0,79,30.08,10.0,Calm,Calm,-,N/A,,Clear,0,2013-11-10 01:53:00
9:53 PM,36.0,28.9,76,30.05,10.0,Calm,Calm,-,N/A,,Clear,0,2013-11-10 02:53:00
10:53 PM,36.0,30.0,79,30.03,10.0,Calm,Calm,-,N/A,,Overcast,0,2013-11-10 03:53:00
11:53 PM,35.1,30.0,82,29.99,10.0,Calm,Calm,-,N/A,,Mostly Cloudy,0,2013-11-10 04:53:00